Time;durP1;ratioP1;P1;durP2;ratioP2;P2;SDS_P1;SDS_P2;PMS_P1;PMS_P2;Temp;Humidity;BMP_temperature;BMP_pressure;BME280_temperature;BME280_humidity;BME280_pressure;Samples;Min_cycle;Max_cycle;Signal;HPM_P1;HPM_P2
2019/08/27 00:02:03;;;;;;;6.03;4.51;;;;;;;23.12;59.88;100558.73;;;;-50
2019/08/27 00:05:03;;;;;;;4.75;4.28;;;;;;;23.11;59.87;100556.84;;;;-51
2019/08/27 00:08:03;;;;;;;4.71;4.28;;;;;;;23.11;59.85;100557.08;;;;-51
2019/08/27 00:11:03;;;;;;;4.65;4.24;;;;;;;23.10;59.90;100550.20;;;;-51
2019/08/27 00:14:03;;;;;;;5.31;4.69;;;;;;;23.09;59.89;100550.65;;;;-50
2019/08/27 00:17:03;;;;;;;5.18;4.29;;;;;;;23.10;59.90;100549.80;;;;-50
2019/08/27 00:20:02;;;;;;;5.05;4.55;;;;;;;23.09;59.91;100550.89;;;;-50
2019/08/27 00:23:03;;;;;;;5.07;4.57;;;;;;;23.08;59.90;100544.25;;;;-54
2019/08/27 00:26:03;;;;;;;4.65;4.17;;;;;;;23.08;59.89;100546.30;;;;-54
2019/08/27 00:29:02;;;;;;;4.84;4.30;;;;;;;23.08;59.90;100543.88;;;;-51
2019/08/27 00:32:02;;;;;;;4.61;4.11;;;;;;;23.07;59.91;100536.81;;;;-51
2019/08/27 00:35:03;;;;;;;4.62;4.22;;;;;;;23.08;59.92;100534.65;;;;-60
2019/08/27 00:38:02;;;;;;;4.79;4.30;;;;;;;23.07;59.91;100530.74;;;;-51
2019/08/27 00:41:03;;;;;;;4.73;4.22;;;;;;;23.07;59.88;100531.72;;;;-52
2019/08/27 00:44:02;;;;;;;4.71;4.15;;;;;;;23.06;59.87;100534.55;;;;-54
2019/08/27 00:47:03;;;;;;;4.87;4.23;;;;;;;23.06;59.90;100541.49;;;;-50
2019/08/27 00:50:03;;;;;;;4.62;4.19;;;;;;;23.05;59.92;100538.77;;;;-50
2019/08/27 00:53:02;;;;;;;4.65;4.20;;;;;;;23.04;59.92;100538.67;;;;-54
2019/08/27 00:56:03;;;;;;;4.69;4.14;;;;;;;23.05;59.89;100537.08;;;;-60
2019/08/27 00:59:03;;;;;;;4.67;3.97;;;;;;;23.05;59.90;100529.98;;;;-54
2019/08/27 01:02:02;;;;;;;4.55;4.15;;;;;;;23.04;59.88;100528.19;;;;-54
2019/08/27 01:05:03;;;;;;;4.62;4.13;;;;;;;23.04;59.89;100527.18;;;;-60
2019/08/27 01:08:03;;;;;;;4.63;4.22;;;;;;;23.03;59.93;100526.74;;;;-54
2019/08/27 01:11:03;;;;;;;4.65;4.20;;;;;;;23.03;59.92;100524.79;;;;-54
2019/08/27 01:14:02;;;;;;;4.49;4.09;;;;;;;23.03;59.90;100522.84;;;;-54
2019/08/27 01:17:03;;;;;;;4.38;4.00;;;;;;;23.02;59.89;100525.94;;;;-54
2019/08/27 01:20:03;;;;;;;4.37;3.99;;;;;;;23.02;59.91;100526.38;;;;-54
2019/08/27 01:23:03;;;;;;;4.41;4.01;;;;;;;23.02;59.90;100526.61;;;;-54
2019/08/27 01:26:03;;;;;;;4.78;4.23;;;;;;;23.02;59.89;100526.38;;;;-54
2019/08/27 01:29:03;;;;;;;4.81;4.19;;;;;;;23.00;59.90;100528.94;;;;-54
2019/08/27 01:32:03;;;;;;;4.46;4.03;;;;;;;23.00;59.90;100530.12;;;;-54
2019/08/27 01:35:10;;;;;;;4.33;3.94;;;;;;;23.01;59.91;100532.14;;;;-54
2019/08/27 01:38:03;;;;;;;4.73;3.93;;;;;;;23.00;59.91;100527.56;;;;-54
2019/08/27 01:41:03;;;;;;;4.13;3.82;;;;;;;23.00;59.93;100527.32;;;;-54
2019/08/27 01:44:07;;;;;;;4.35;3.95;;;;;;;22.99;59.91;100525.00;;;;-54
2019/08/27 01:47:03;;;;;;;4.35;4.00;;;;;;;22.99;59.92;100520.05;;;;-54
2019/08/27 01:50:03;;;;;;;4.41;4.01;;;;;;;22.99;59.92;100518.53;;;;-54
2019/08/27 01:53:03;;;;;;;4.48;4.08;;;;;;;22.98;59.92;100519.17;;;;-53
2019/08/27 01:56:02;;;;;;;4.90;4.00;;;;;;;22.99;59.90;100518.70;;;;-54
2019/08/27 01:59:03;;;;;;;4.33;3.93;;;;;;;22.98;59.91;100514.97;;;;-54
2019/08/27 02:02:02;;;;;;;4.33;3.91;;;;;;;22.98;59.90;100516.38;;;;-54
2019/08/27 02:05:03;;;;;;;5.05;4.01;;;;;;;22.97;59.88;100510.73;;;;-54
2019/08/27 02:08:03;;;;;;;4.57;4.17;;;;;;;22.97;59.94;100509.61;;;;-54
2019/08/27 02:11:03;;;;;;;4.08;3.69;;;;;;;22.97;59.91;100507.76;;;;-54
2019/08/27 02:14:02;;;;;;;4.21;3.81;;;;;;;22.96;59.90;100506.58;;;;-51
2019/08/27 02:17:03;;;;;;;4.23;3.89;;;;;;;22.97;59.92;100511.13;;;;-52
2019/08/27 02:20:03;;;;;;;4.07;3.77;;;;;;;22.96;59.89;100509.25;;;;-52
2019/08/27 02:23:03;;;;;;;4.54;4.14;;;;;;;22.96;59.89;100508.50;;;;-51
2019/08/27 02:26:03;;;;;;;3.98;3.68;;;;;;;22.96;59.93;100510.36;;;;-52
2019/08/27 02:29:02;;;;;;;4.19;3.79;;;;;;;22.95;59.92;100506.52;;;;-51
2019/08/27 02:32:03;;;;;;;4.19;3.79;;;;;;;22.95;59.88;100506.69;;;;-52
2019/08/27 02:35:02;;;;;;;4.51;4.11;;;;;;;22.94;59.90;100501.03;;;;-50
2019/08/27 02:38:03;;;;;;;4.15;3.75;;;;;;;22.95;59.88;100504.27;;;;-51
2019/08/27 02:41:03;;;;;;;4.32;3.92;;;;;;;22.94;59.92;100505.24;;;;-51
2019/08/27 02:44:03;;;;;;;4.21;3.82;;;;;;;22.93;59.89;100500.83;;;;-51
2019/08/27 02:47:03;;;;;;;4.47;3.74;;;;;;;22.94;59.91;100503.22;;;;-52
2019/08/27 02:50:02;;;;;;;4.22;3.84;;;;;;;22.93;59.92;100503.97;;;;-51
2019/08/27 02:53:03;;;;;;;4.27;3.85;;;;;;;22.94;59.90;100509.12;;;;-51
2019/08/27 02:56:03;;;;;;;4.42;4.02;;;;;;;22.93;59.89;100509.86;;;;-51
2019/08/27 02:59:03;;;;;;;4.17;3.77;;;;;;;22.93;59.85;100510.19;;;;-52
2019/08/27 03:02:03;;;;;;;4.27;3.87;;;;;;;22.92;59.89;100508.81;;;;-52
2019/08/27 03:05:03;;;;;;;4.16;3.76;;;;;;;22.92;59.91;100506.70;;;;-51
2019/08/27 03:08:02;;;;;;;4.52;4.12;;;;;;;22.92;59.87;100515.05;;;;-54
2019/08/27 03:11:02;;;;;;;4.02;3.72;;;;;;;22.92;59.90;100518.31;;;;-59
2019/08/27 03:14:02;;;;;;;4.14;3.75;;;;;;;22.91;59.88;100519.23;;;;-54
2019/08/27 03:17:03;;;;;;;4.39;3.99;;;;;;;22.91;59.90;100519.73;;;;-50
2019/08/27 03:20:02;;;;;;;4.27;3.87;;;;;;;22.91;59.88;100521.66;;;;-53
2019/08/27 03:23:03;;;;;;;4.15;3.75;;;;;;;22.90;59.88;100524.41;;;;-54
2019/08/27 03:26:03;;;;;;;4.24;3.84;;;;;;;22.91;59.88;100527.05;;;;-54
2019/08/27 03:29:03;;;;;;;4.09;3.79;;;;;;;22.90;59.88;100526.84;;;;-52
2019/08/27 03:32:03;;;;;;;4.15;3.75;;;;;;;22.90;59.87;100525.93;;;;-50
2019/08/27 03:35:02;;;;;;;4.07;3.74;;;;;;;22.90;59.87;100522.90;;;;-60
2019/08/27 03:38:03;;;;;;;4.23;3.83;;;;;;;22.89;59.88;100525.05;;;;-60
2019/08/27 03:41:03;;;;;;;4.66;3.69;;;;;;;22.90;59.84;100524.83;;;;-60
2019/08/27 03:44:03;;;;;;;4.47;3.81;;;;;;;22.89;59.88;100524.05;;;;-50
2019/08/27 03:47:03;;;;;;;4.09;3.79;;;;;;;22.89;59.87;100526.30;;;;-52
2019/08/27 03:50:03;;;;;;;4.31;3.91;;;;;;;22.89;59.87;100531.29;;;;-60
2019/08/27 03:53:03;;;;;;;4.51;3.85;;;;;;;22.89;59.86;100538.94;;;;-50
2019/08/27 03:56:02;;;;;;;4.18;3.79;;;;;;;22.89;59.88;100535.23;;;;-50
2019/08/27 03:59:03;;;;;;;3.85;3.55;;;;;;;22.89;59.89;100537.69;;;;-53
2019/08/27 04:02:03;;;;;;;4.11;3.75;;;;;;;22.89;59.88;100533.72;;;;-54
2019/08/27 04:05:03;;;;;;;4.27;3.91;;;;;;;22.89;59.91;100529.44;;;;-59
2019/08/27 04:08:03;;;;;;;4.13;3.83;;;;;;;22.89;59.86;100526.64;;;;-51
2019/08/27 04:11:03;;;;;;;4.27;3.87;;;;;;;22.88;59.85;100529.30;;;;-51
2019/08/27 04:14:02;;;;;;;4.62;4.06;;;;;;;22.88;59.88;100534.45;;;;-52
2019/08/27 04:17:02;;;;;;;4.55;4.15;;;;;;;22.87;59.86;100537.63;;;;-52
2019/08/27 04:20:03;;;;;;;4.19;3.85;;;;;;;22.87;59.86;100544.20;;;;-52
2019/08/27 04:23:02;;;;;;;4.53;4.13;;;;;;;22.88;59.87;100554.40;;;;-50
2019/08/27 04:26:02;;;;;;;4.32;3.92;;;;;;;22.88;59.88;100554.40;;;;-59
2019/08/27 04:29:02;;;;;;;4.37;3.97;;;;;;;22.86;59.87;100552.08;;;;-60
2019/08/27 04:32:02;;;;;;;4.43;4.03;;;;;;;22.87;59.87;100555.55;;;;-50
2019/08/27 04:35:03;;;;;;;4.69;4.17;;;;;;;22.87;59.88;100557.73;;;;-51
2019/08/27 04:38:03;;;;;;;4.34;3.97;;;;;;;22.87;59.87;100558.00;;;;-54
2019/08/27 04:41:02;;;;;;;4.38;3.99;;;;;;;22.86;59.88;100553.33;;;;-54
2019/08/27 04:44:02;;;;;;;4.33;3.90;;;;;;;22.86;59.87;100557.53;;;;-59
2019/08/27 04:47:03;;;;;;;4.25;3.95;;;;;;;22.86;59.87;100558.14;;;;-60
2019/08/27 04:50:03;;;;;;;4.43;4.03;;;;;;;22.85;59.84;100558.61;;;;-51
2019/08/27 04:53:03;;;;;;;4.15;3.77;;;;;;;22.86;59.84;100561.58;;;;-59
2019/08/27 04:56:03;;;;;;;3.98;3.66;;;;;;;22.85;59.87;100570.16;;;;-50
2019/08/27 04:59:03;;;;;;;4.20;3.87;;;;;;;22.85;59.88;100570.91;;;;-50
2019/08/27 05:02:02;;;;;;;5.23;4.17;;;;;;;22.84;60.78;100576.94;;;;-48
2019/08/27 05:05:03;;;;;;;15.31;12.97;;;;;;;22.77;62.25;100579.64;;;;-50
2019/08/27 05:08:03;;;;;;;22.72;15.89;;;;;;;22.74;62.82;100582.84;;;;-48
2019/08/27 05:11:03;;;;;;;28.80;21.97;;;;;;;22.70;63.21;100588.59;;;;-52
2019/08/27 05:14:02;;;;;;;35.59;25.37;;;;;;;22.69;63.37;100594.96;;;;-52
2019/08/27 05:17:03;;;;;;;40.64;28.59;;;;;;;22.68;63.37;100597.66;;;;-51
2019/08/27 05:20:02;;;;;;;83.89;49.73;;;;;;;22.67;63.69;100601.22;;;;-51
2019/08/27 05:23:03;;;;;;;65.21;41.20;;;;;;;22.72;63.35;100600.98;;;;-51
2019/08/27 05:26:02;;;;;;;68.43;42.76;;;;;;;22.74;62.85;100604.73;;;;-52
2019/08/27 05:29:02;;;;;;;63.93;40.07;;;;;;;22.76;62.72;100608.59;;;;-50
2019/08/27 05:32:02;;;;;;;54.51;34.13;;;;;;;22.77;62.71;100607.02;;;;-50
2019/08/27 05:35:03;;;;;;;49.00;32.57;;;;;;;22.78;62.58;100611.36;;;;-51
2019/08/27 05:38:02;;;;;;;43.27;29.87;;;;;;;22.78;62.42;100614.45;;;;-60
2019/08/27 05:41:02;;;;;;;41.46;28.95;;;;;;;22.78;62.46;100615.80;;;;-57
2019/08/27 05:44:02;;;;;;;42.55;27.89;;;;;;;22.78;62.38;100623.98;;;;-57
2019/08/27 05:47:03;;;;;;;36.99;27.18;;;;;;;22.78;62.27;100624.39;;;;-55
2019/08/27 05:50:03;;;;;;;35.64;25.91;;;;;;;22.79;62.31;100625.20;;;;-52
2019/08/27 05:53:03;;;;;;;34.48;25.09;;;;;;;22.79;62.38;100624.77;;;;-51
2019/08/27 05:56:03;;;;;;;33.72;24.25;;;;;;;22.80;62.41;100625.88;;;;-56
2019/08/27 05:59:03;;;;;;;39.52;26.06;;;;;;;22.80;62.28;100627.25;;;;-56
2019/08/27 06:02:02;;;;;;;37.07;24.65;;;;;;;22.80;62.16;100630.45;;;;-53
2019/08/27 06:05:03;;;;;;;34.90;24.53;;;;;;;22.83;62.30;100633.42;;;;-59
2019/08/27 06:08:03;;;;;;;37.08;23.97;;;;;;;22.86;61.94;100635.84;;;;-58
2019/08/27 06:11:02;;;;;;;31.67;21.84;;;;;;;22.86;61.75;100639.81;;;;-57
2019/08/27 06:14:02;;;;;;;31.94;21.72;;;;;;;22.88;61.72;100641.73;;;;-56
2019/08/27 06:17:03;;;;;;;34.41;23.07;;;;;;;22.88;61.64;100639.11;;;;-57
2019/08/27 06:20:02;;;;;;;32.13;22.75;;;;;;;22.89;61.69;100640.42;;;;-57
2019/08/27 06:23:03;;;;;;;30.48;22.72;;;;;;;22.89;61.61;100641.00;;;;-57
2019/08/27 06:26:02;;;;;;;33.11;23.02;;;;;;;22.90;61.57;100640.19;;;;-56
2019/08/27 06:29:03;;;;;;;30.78;22.27;;;;;;;22.91;61.55;100643.35;;;;-57
2019/08/27 06:32:02;;;;;;;34.35;22.39;;;;;;;22.91;61.39;100639.72;;;;-57
2019/08/27 06:35:02;;;;;;;31.87;20.77;;;;;;;22.91;61.36;100635.00;;;;-50
2019/08/27 06:38:02;;;;;;;30.95;21.34;;;;;;;22.91;61.27;100638.03;;;;-50
2019/08/27 06:41:02;;;;;;;28.44;20.92;;;;;;;22.91;61.21;100637.29;;;;-51
2019/08/27 06:44:02;;;;;;;27.07;20.91;;;;;;;22.92;61.23;100646.15;;;;-51
2019/08/27 06:47:03;;;;;;;27.23;21.16;;;;;;;22.93;61.12;100650.56;;;;-50
2019/08/27 06:50:03;;;;;;;26.68;20.59;;;;;;;22.93;61.13;100656.56;;;;-50
2019/08/27 06:53:03;;;;;;;28.67;20.61;;;;;;;22.92;61.05;100656.02;;;;-50
2019/08/27 06:56:02;;;;;;;27.80;21.03;;;;;;;22.93;61.00;100655.88;;;;-51
2019/08/27 06:59:03;;;;;;;28.05;20.67;;;;;;;22.94;60.93;100651.94;;;;-51
2019/08/27 07:02:02;;;;;;;27.98;19.99;;;;;;;22.93;60.95;100646.28;;;;-50
2019/08/27 07:05:03;;;;;;;27.25;20.10;;;;;;;22.93;60.83;100638.60;;;;-50
2019/08/27 07:08:03;;;;;;;26.92;20.17;;;;;;;22.92;60.88;100641.70;;;;-50
2019/08/27 07:11:03;;;;;;;26.31;19.48;;;;;;;22.94;60.88;100646.38;;;;-49
2019/08/27 07:14:03;;;;;;;24.76;18.75;;;;;;;22.98;60.89;100647.36;;;;-49
2019/08/27 07:17:02;;;;;;;22.50;17.98;;;;;;;22.99;61.78;100645.47;;;;-49
2019/08/27 07:20:02;;;;;;;23.09;17.67;;;;;;;23.00;61.81;100645.23;;;;-49
2019/08/27 07:23:02;;;;;;;20.38;16.49;;;;;;;23.01;61.80;100641.46;;;;-49
2019/08/27 07:26:02;;;;;;;19.37;16.33;;;;;;;23.03;62.04;100642.80;;;;-49
2019/08/27 07:29:03;;;;;;;17.86;15.97;;;;;;;23.03;62.42;100642.20;;;;-50
2019/08/27 07:32:02;;;;;;;17.64;15.88;;;;;;;23.02;62.12;100647.49;;;;-50
2019/08/27 07:35:03;;;;;;;17.32;15.32;;;;;;;23.02;62.13;100654.67;;;;-50
2019/08/27 07:38:03;;;;;;;18.01;16.03;;;;;;;23.02;62.03;100654.97;;;;-50
2019/08/27 07:41:03;;;;;;;17.84;15.83;;;;;;;23.02;62.03;100657.50;;;;-59
2019/08/27 07:44:03;;;;;;;17.78;15.51;;;;;;;23.02;62.00;100658.55;;;;-60
2019/08/27 07:47:03;;;;;;;17.82;15.34;;;;;;;23.02;61.99;100658.17;;;;-59
2019/08/27 07:50:03;;;;;;;20.81;15.84;;;;;;;23.02;61.97;100659.11;;;;-57
2019/08/27 07:53:03;;;;;;;17.39;14.77;;;;;;;23.03;61.96;100661.27;;;;-58
2019/08/27 07:56:02;;;;;;;17.67;14.89;;;;;;;23.04;61.87;100658.27;;;;-58
2019/08/27 07:59:02;;;;;;;15.84;14.18;;;;;;;23.07;61.83;100658.23;;;;-57
2019/08/27 08:02:03;;;;;;;16.37;14.21;;;;;;;23.08;61.71;100658.98;;;;-59
2019/08/27 08:05:03;;;;;;;17.07;14.41;;;;;;;23.08;61.65;100663.49;;;;-61
2019/08/27 08:08:03;;;;;;;16.03;14.19;;;;;;;23.09;61.61;100662.68;;;;-59
2019/08/27 08:11:03;;;;;;;15.66;13.78;;;;;;;23.10;61.70;100664.70;;;;-60
2019/08/27 08:14:02;;;;;;;16.27;14.06;;;;;;;23.11;61.65;100662.72;;;;-57
2019/08/27 08:17:02;;;;;;;16.27;13.84;;;;;;;23.12;61.60;100655.77;;;;-58
2019/08/27 08:20:03;;;;;;;16.71;13.47;;;;;;;23.13;61.59;100656.05;;;;-60
2019/08/27 08:23:03;;;;;;;15.24;13.74;;;;;;;23.13;61.68;100658.91;;;;-58
2019/08/27 08:26:03;;;;;;;16.21;13.55;;;;;;;23.14;61.53;100663.31;;;;-58
2019/08/27 08:29:06;;;;;;;15.75;13.69;;;;;;;23.15;61.55;100662.07;;;;-58
2019/08/27 08:32:03;;;;;;;17.36;13.09;;;;;;;23.15;61.39;100661.84;;;;-56
2019/08/27 08:35:02;;;;;;;15.27;13.70;;;;;;;23.16;61.44;100662.47;;;;-60
2019/08/27 08:38:02;;;;;;;14.95;13.45;;;;;;;23.16;61.42;100664.05;;;;-62
2019/08/27 08:41:03;;;;;;;14.56;13.01;;;;;;;23.17;61.39;100663.08;;;;-56
2019/08/27 08:44:03;;;;;;;14.71;13.13;;;;;;;23.17;61.36;100653.87;;;;-58
2019/08/27 08:47:03;;;;;;;14.47;12.97;;;;;;;23.17;61.41;100653.81;;;;-58
2019/08/27 08:50:03;;;;;;;13.91;12.45;;;;;;;23.18;61.40;100644.58;;;;-55
2019/08/27 08:53:03;;;;;;;16.53;12.85;;;;;;;23.20;61.36;100643.97;;;;-57
2019/08/27 08:56:02;;;;;;;16.61;12.61;;;;;;;23.20;61.31;100637.13;;;;-60
2019/08/27 08:59:03;;;;;;;14.29;12.89;;;;;;;23.20;61.32;100634.03;;;;-51
2019/08/27 09:02:03;;;;;;;13.93;12.51;;;;;;;23.21;61.36;100636.98;;;;-48
2019/08/27 09:05:03;;;;;;;13.19;11.83;;;;;;;23.20;61.17;100639.42;;;;-49
2019/08/27 09:08:03;;;;;;;13.43;12.03;;;;;;;23.20;61.28;100635.71;;;;-58
2019/08/27 09:11:03;;;;;;;15.13;12.28;;;;;;;23.19;61.21;100636.42;;;;-50
2019/08/27 09:14:02;;;;;;;14.03;12.44;;;;;;;23.19;61.17;100632.14;;;;-56
2019/08/27 09:17:02;;;;;;;13.69;12.28;;;;;;;23.18;61.19;100631.00;;;;-51
2019/08/27 09:20:03;;;;;;;13.89;12.33;;;;;;;23.21;61.17;100629.17;;;;-51
2019/08/27 09:23:02;;;;;;;20.91;12.18;;;;;;;23.22;61.20;100628.36;;;;-49
2019/08/27 09:26:03;;;;;;;16.36;12.33;;;;;;;23.23;61.14;100626.27;;;;-51
2019/08/27 09:29:03;;;;;;;15.17;12.05;;;;;;;23.25;61.38;100626.50;;;;-60
2019/08/27 09:32:02;;;;;;;15.41;11.90;;;;;;;23.26;61.34;100624.44;;;;-51
2019/08/27 09:35:03;;;;;;;15.43;12.60;;;;;;;23.27;61.45;100627.75;;;;-50
2019/08/27 09:38:03;;;;;;;16.12;11.57;;;;;;;23.29;61.28;100628.89;;;;-60
2019/08/27 09:41:03;;;;;;;15.23;11.95;;;;;;;23.31;61.43;100629.55;;;;-56
2019/08/27 09:44:03;;;;;;;15.97;11.89;;;;;;;23.31;61.37;100624.20;;;;-55
2019/08/27 09:47:03;;;;;;;17.42;11.75;;;;;;;23.32;61.34;100617.83;;;;-51
2019/08/27 09:50:03;;;;;;;21.81;12.07;;;;;;;23.32;61.32;100616.64;;;;-47
2019/08/27 09:53:02;;;;;;;19.49;11.57;;;;;;;23.32;61.15;100618.39;;;;-60
2019/08/27 09:56:02;;;;;;;14.85;11.94;;;;;;;23.31;61.19;100619.52;;;;-50
2019/08/27 09:59:03;;;;;;;15.11;11.55;;;;;;;23.30;61.14;100617.25;;;;-59
2019/08/27 10:02:02;;;;;;;16.36;11.38;;;;;;;23.30;61.15;100619.98;;;;-59
2019/08/27 10:05:02;;;;;;;15.43;11.59;;;;;;;23.28;61.14;100616.52;;;;-51
2019/08/27 10:08:03;;;;;;;13.51;11.99;;;;;;;23.28;61.11;100612.44;;;;-51
2019/08/27 10:11:02;;;;;;;18.45;11.24;;;;;;;23.27;61.04;100610.32;;;;-50
2019/08/27 10:14:02;;;;;;;12.98;11.21;;;;;;;23.27;60.96;100606.68;;;;-58
2019/08/27 10:17:02;;;;;;;14.10;11.07;;;;;;;23.27;60.95;100605.56;;;;-51
2019/08/27 10:20:03;;;;;;;16.27;10.73;;;;;;;23.26;60.92;100596.13;;;;-60
2019/08/27 10:23:03;;;;;;;13.31;11.05;;;;;;;23.26;60.87;100596.47;;;;-59
2019/08/27 10:26:02;;;;;;;12.64;10.67;;;;;;;23.26;60.77;100587.27;;;;-51
2019/08/27 10:29:03;;;;;;;14.33;10.59;;;;;;;23.24;60.76;100579.96;;;;-60
2019/08/27 10:32:03;;;;;;;13.49;11.43;;;;;;;23.24;60.79;100579.89;;;;-60
2019/08/27 10:35:02;;;;;;;12.23;10.83;;;;;;;23.23;60.76;100581.55;;;;-59
2019/08/27 10:38:03;;;;;;;13.45;10.65;;;;;;;23.23;60.70;100576.56;;;;-50
2019/08/27 10:41:03;;;;;;;12.47;10.91;;;;;;;23.23;60.69;100568.81;;;;-51
2019/08/27 10:45:03;;;;;;;12.23;10.55;;;;;;;23.23;60.67;100569.25;;;;-50
2019/08/27 10:48:03;;;;;;;11.89;10.60;;;;;;;23.22;60.67;100569.05;;;;-59
2019/08/27 10:51:02;;;;;;;12.80;10.26;;;;;;;23.21;60.66;100567.50;;;;-50
2019/08/27 10:54:02;;;;;;;12.55;10.41;;;;;;;23.21;60.64;100564.88;;;;-50
2019/08/27 10:57:02;;;;;;;12.21;10.37;;;;;;;23.20;60.63;100565.17;;;;-59
2019/08/27 11:00:03;;;;;;;12.39;9.97;;;;;;;23.21;60.59;100559.48;;;;-60
2019/08/27 11:03:03;;;;;;;11.94;10.37;;;;;;;23.20;60.59;100556.69;;;;-50
2019/08/27 11:06:03;;;;;;;11.93;10.49;;;;;;;23.20;60.56;100552.20;;;;-51
2019/08/27 11:09:03;;;;;;;11.18;9.94;;;;;;;23.20;60.52;100546.30;;;;-60
2019/08/27 11:12:02;;;;;;;12.01;9.92;;;;;;;23.20;60.51;100543.11;;;;-51
2019/08/27 11:15:03;;;;;;;11.95;10.56;;;;;;;23.21;60.48;100537.07;;;;-52
2019/08/27 11:18:03;;;;;;;12.47;10.33;;;;;;;23.20;60.49;100533.84;;;;-50
2019/08/27 11:21:02;;;;;;;11.38;10.18;;;;;;;23.20;60.50;100532.25;;;;-58
2019/08/27 11:24:03;;;;;;;12.78;10.21;;;;;;;23.20;60.52;100535.80;;;;-51
2019/08/27 11:27:03;;;;;;;12.59;10.02;;;;;;;23.19;60.55;100529.77;;;;-51
2019/08/27 11:30:03;;;;;;;12.14;10.17;;;;;;;23.17;60.70;100526.88;;;;-53
2019/08/27 11:33:02;;;;;;;18.41;10.53;;;;;;;23.22;61.49;100526.92;;;;-58
2019/08/27 11:36:08;;;;;;;20.05;10.22;;;;;;;23.22;61.28;100518.33;;;;-56
2019/08/27 11:39:02;;;;;;;13.72;10.03;;;;;;;23.26;61.23;100514.23;;;;-61
2019/08/27 11:42:03;;;;;;;16.34;10.06;;;;;;;23.28;61.44;100505.53;;;;-56
2019/08/27 11:45:03;;;;;;;17.65;10.09;;;;;;;23.29;61.41;100503.10;;;;-58
2019/08/27 11:48:03;;;;;;;14.33;10.19;;;;;;;23.32;61.35;100498.41;;;;-49
2019/08/27 11:51:02;;;;;;;16.87;10.42;;;;;;;23.33;61.31;100496.65;;;;-48
2019/08/27 11:54:02;;;;;;;14.93;10.15;;;;;;;23.33;61.46;100487.72;;;;-51
2019/08/27 11:57:03;;;;;;;16.09;9.71;;;;;;;23.34;61.48;100490.44;;;;-56
2019/08/27 12:00:02;;;;;;;15.11;9.87;;;;;;;23.34;61.38;100486.05;;;;-58
2019/08/27 12:03:03;;;;;;;13.32;9.72;;;;;;;23.36;61.45;100481.23;;;;-51
2019/08/27 12:06:03;;;;;;;14.53;9.50;;;;;;;23.37;61.35;100482.95;;;;-57
2019/08/27 12:09:03;;;;;;;16.66;9.60;;;;;;;23.37;61.79;100482.61;;;;-58
2019/08/27 12:12:02;;;;;;;14.51;9.88;;;;;;;23.39;61.46;100477.34;;;;-51
2019/08/27 12:15:02;;;;;;;14.39;9.80;;;;;;;23.39;61.48;100475.34;;;;-59
2019/08/27 12:18:02;;;;;;;12.01;9.42;;;;;;;23.40;61.43;100472.75;;;;-51
2019/08/27 12:21:03;;;;;;;12.54;9.67;;;;;;;23.40;61.49;100469.31;;;;-50
2019/08/27 12:24:03;;;;;;;11.54;9.33;;;;;;;23.42;61.25;100465.56;;;;-51
2019/08/27 12:27:02;;;;;;;16.87;9.61;;;;;;;23.38;61.46;100463.42;;;;-51
2019/08/27 12:30:02;;;;;;;13.59;9.76;;;;;;;23.40;61.49;100462.70;;;;-59
2019/08/27 12:33:02;;;;;;;14.41;9.85;;;;;;;23.41;61.46;100461.75;;;;-60
2019/08/27 12:36:02;;;;;;;13.79;9.59;;;;;;;23.42;61.48;100459.39;;;;-59
2019/08/27 12:39:03;;;;;;;13.81;9.59;;;;;;;23.42;61.47;100456.80;;;;-59
2019/08/27 12:42:02;;;;;;;18.51;9.37;;;;;;;23.43;61.45;100457.23;;;;-56
2019/08/27 12:45:03;;;;;;;12.32;9.61;;;;;;;23.42;61.44;100451.41;;;;-59
2019/08/27 12:48:03;;;;;;;13.23;9.58;;;;;;;23.42;61.50;100447.59;;;;-60
2019/08/27 12:51:02;;;;;;;16.14;9.33;;;;;;;23.43;61.67;100451.84;;;;-61
2019/08/27 12:54:02;;;;;;;13.99;9.25;;;;;;;23.44;61.96;100443.70;;;;-52
2019/08/27 12:57:03;;;;;;;24.50;9.97;;;;;;;23.44;61.87;100437.30;;;;-52
2019/08/27 13:00:02;;;;;;;17.97;9.47;;;;;;;23.47;61.97;100437.22;;;;-50
2019/08/27 13:03:02;;;;;;;18.55;9.63;;;;;;;23.49;62.14;100436.33;;;;-58
2019/08/27 13:06:03;;;;;;;18.49;9.75;;;;;;;23.50;62.28;100430.80;;;;-50
2019/08/27 13:09:03;;;;;;;18.16;9.50;;;;;;;23.50;61.84;100432.30;;;;-58
2019/08/27 13:12:03;;;;;;;15.13;9.41;;;;;;;23.51;62.07;100425.59;;;;-50
2019/08/27 13:15:02;;;;;;;19.10;9.23;;;;;;;23.53;62.10;100425.55;;;;-57
2019/08/27 13:18:02;;;;;;;17.49;9.55;;;;;;;23.56;62.27;100425.90;;;;-55
2019/08/27 13:21:02;;;;;;;15.81;9.22;;;;;;;23.56;62.28;100418.66;;;;-57
2019/08/27 13:24:02;;;;;;;13.46;9.33;;;;;;;23.57;62.46;100414.36;;;;-58
2019/08/27 13:27:03;;;;;;;16.13;9.05;;;;;;;23.59;62.32;100407.41;;;;-49
2019/08/27 13:30:03;;;;;;;13.64;8.95;;;;;;;23.59;62.12;100404.50;;;;-51
2019/08/27 13:33:02;;;;;;;26.54;9.19;;;;;;;23.60;62.35;100406.62;;;;-52
2019/08/27 13:36:02;;;;;;;14.19;9.25;;;;;;;23.61;62.05;100403.95;;;;-57
2019/08/27 13:39:03;;;;;;;16.86;9.49;;;;;;;23.61;62.22;100400.07;;;;-57
2019/08/27 13:42:02;;;;;;;16.94;9.10;;;;;;;23.62;62.05;100394.36;;;;-46
2019/08/27 13:45:02;;;;;;;16.06;9.67;;;;;;;23.64;62.27;100395.50;;;;-48
2019/08/27 13:48:03;;;;;;;17.28;8.75;;;;;;;23.64;62.39;100394.41;;;;-50
2019/08/27 13:51:03;;;;;;;23.77;8.91;;;;;;;23.64;62.18;100394.92;;;;-53
2019/08/27 13:54:03;;;;;;;16.81;8.91;;;;;;;23.65;62.04;100392.86;;;;-48
2019/08/27 13:57:03;;;;;;;24.69;9.30;;;;;;;23.66;62.09;100391.16;;;;-49
2019/08/27 14:00:02;;;;;;;18.45;9.11;;;;;;;23.66;62.26;100396.16;;;;-52
2019/08/27 14:03:02;;;;;;;23.40;9.73;;;;;;;23.66;62.46;100391.33;;;;-48
2019/08/27 14:06:03;;;;;;;22.09;8.86;;;;;;;23.68;62.18;100387.41;;;;-55
2019/08/27 14:09:03;;;;;;;19.42;8.77;;;;;;;23.68;62.17;100377.90;;;;-59
2019/08/27 14:12:03;;;;;;;17.42;9.05;;;;;;;23.69;62.12;100378.19;;;;-54
2019/08/27 14:15:03;;;;;;;21.05;9.11;;;;;;;23.68;61.95;100378.14;;;;-51
2019/08/27 14:18:02;;;;;;;25.23;9.32;;;;;;;23.67;62.02;100376.34;;;;-57
2019/08/27 14:21:02;;;;;;;16.97;9.02;;;;;;;23.66;61.81;100368.91;;;;-51
2019/08/27 14:24:02;;;;;;;19.53;8.61;;;;;;;23.66;61.97;100363.51;;;;-59
2019/08/27 14:27:02;;;;;;;18.53;8.55;;;;;;;23.68;61.84;100368.19;;;;-50
2019/08/27 14:30:02;;;;;;;18.38;8.54;;;;;;;23.67;61.76;100362.19;;;;-54
2019/08/27 14:33:02;;;;;;;16.01;8.57;;;;;;;23.68;61.71;100362.66;;;;-60
2019/08/27 14:36:03;;;;;;;14.27;8.53;;;;;;;23.68;61.62;100356.65;;;;-58
2019/08/27 14:39:04;;;;;;;20.13;8.62;;;;;;;23.69;61.92;100356.75;;;;-53
2019/08/27 14:42:03;;;;;;;17.27;8.69;;;;;;;23.69;61.72;100357.59;;;;-58
2019/08/27 14:45:02;;;;;;;18.69;8.67;;;;;;;23.68;61.57;100348.39;;;;-59
2019/08/27 14:48:02;;;;;;;13.05;8.58;;;;;;;23.69;61.74;100345.21;;;;-52
2019/08/27 14:51:02;;;;;;;22.02;8.72;;;;;;;23.70;61.84;100344.56;;;;-52
2019/08/27 14:54:02;;;;;;;17.78;8.62;;;;;;;23.72;61.92;100346.64;;;;-49
2019/08/27 14:57:02;;;;;;;25.39;8.73;;;;;;;23.72;61.99;100345.70;;;;-59
2019/08/27 15:00:03;;;;;;;24.83;8.87;;;;;;;23.72;61.99;100343.70;;;;-49
2019/08/27 15:03:02;;;;;;;18.53;8.27;;;;;;;23.74;61.93;100340.95;;;;-58
2019/08/27 15:06:02;;;;;;;17.23;8.19;;;;;;;23.73;61.68;100342.44;;;;-58
2019/08/27 15:09:03;;;;;;;12.85;8.36;;;;;;;23.75;61.46;100348.30;;;;-54
2019/08/27 15:12:02;;;;;;;18.27;8.52;;;;;;;23.74;61.55;100344.83;;;;-58
2019/08/27 15:15:02;;;;;;;16.07;8.42;;;;;;;23.74;61.53;100342.30;;;;-60
2019/08/27 15:18:02;;;;;;;15.72;8.07;;;;;;;23.75;61.52;100338.69;;;;-53
2019/08/27 15:21:03;;;;;;;15.67;8.45;;;;;;;23.75;61.72;100337.17;;;;-48
2019/08/27 15:24:03;;;;;;;16.91;8.12;;;;;;;23.75;61.58;100340.13;;;;-55
2019/08/27 15:27:02;;;;;;;19.77;8.39;;;;;;;23.75;61.83;100336.16;;;;-52
2019/08/27 15:30:02;;;;;;;15.34;7.97;;;;;;;23.74;61.64;100334.03;;;;-49
2019/08/27 15:33:02;;;;;;;17.77;8.54;;;;;;;23.76;61.61;100335.10;;;;-46
2019/08/27 15:36:02;;;;;;;13.73;8.19;;;;;;;23.76;61.65;100339.39;;;;-49
2019/08/27 15:39:03;;;;;;;16.37;8.13;;;;;;;23.76;61.65;100340.56;;;;-48
2019/08/27 15:42:03;;;;;;;20.59;8.24;;;;;;;23.76;61.65;100338.54;;;;-48
2019/08/27 15:45:02;;;;;;;14.65;8.11;;;;;;;23.75;61.82;100338.19;;;;-50
2019/08/27 15:48:02;;;;;;;15.85;8.01;;;;;;;23.75;61.82;100338.11;;;;-52
2019/08/27 15:51:02;;;;;;;13.39;7.83;;;;;;;23.75;61.89;100337.60;;;;-49
2019/08/27 15:54:02;;;;;;;14.61;7.96;;;;;;;23.74;61.43;100334.28;;;;-52
2019/08/27 15:57:02;;;;;;;14.43;7.99;;;;;;;23.72;61.48;100337.09;;;;-53
2019/08/27 16:00:02;;;;;;;10.29;7.91;;;;;;;23.71;61.35;100335.66;;;;-53
2019/08/27 16:03:03;;;;;;;12.75;7.77;;;;;;;23.70;61.37;100333.09;;;;-50
2019/08/27 16:06:03;;;;;;;17.72;8.27;;;;;;;23.69;61.34;100337.28;;;;-50
2019/08/27 16:09:03;;;;;;;11.11;7.43;;;;;;;23.67;61.32;100337.50;;;;-50
2019/08/27 16:12:02;;;;;;;12.32;7.92;;;;;;;23.67;61.26;100337.33;;;;-50
2019/08/27 16:15:03;;;;;;;12.67;7.85;;;;;;;23.67;61.21;100338.15;;;;-57
2019/08/27 16:18:02;;;;;;;10.54;7.41;;;;;;;23.66;61.16;100335.02;;;;-57
2019/08/27 16:21:02;;;;;;;10.92;7.26;;;;;;;23.65;61.12;100334.69;;;;-52
2019/08/27 16:24:02;;;;;;;9.20;7.33;;;;;;;23.65;61.14;100340.99;;;;-53
2019/08/27 16:27:02;;;;;;;10.29;7.33;;;;;;;23.64;61.10;100332.34;;;;-53